createdAt,value
2023-08-07T00:01:19.298Z,15.90
2023-08-07T00:03:53.003Z,16.00
2023-08-07T00:06:19.871Z,15.90
2023-08-07T00:08:46.936Z,15.90
2023-08-07T00:11:19.973Z,15.90
2023-08-07T00:13:47.047Z,15.90
2023-08-07T00:16:21.261Z,15.90
2023-08-07T00:18:48.173Z,15.80
2023-08-07T00:21:22.228Z,15.80
2023-08-07T00:23:49.384Z,15.90
2023-08-07T00:26:23.243Z,15.80
2023-08-07T00:28:50.387Z,15.80
2023-08-07T00:31:24.268Z,15.80
2023-08-07T00:33:55.131Z,15.80
2023-08-07T00:36:22.225Z,15.80
2023-08-07T00:38:56.268Z,15.80
2023-08-07T00:41:23.119Z,15.80
2023-08-07T00:43:56.238Z,15.80
2023-08-07T00:46:23.388Z,15.80
2023-08-07T00:48:57.250Z,15.80
2023-08-07T00:51:31.000Z,15.80
2023-08-07T00:53:58.224Z,15.80
2023-08-07T00:56:39.997Z,15.80
2023-08-07T00:59:13.013Z,15.70
2023-08-07T01:01:40.229Z,15.70
2023-08-07T01:04:14.270Z,15.70
2023-08-07T01:06:42.197Z,15.70
2023-08-07T01:09:09.094Z,15.80
2023-08-07T01:12:26.300Z,15.70
2023-08-07T01:15:13.946Z,15.70
2023-08-07T01:17:50.063Z,15.70
2023-08-07T01:20:17.708Z,15.70
2023-08-07T01:22:44.564Z,15.80
2023-08-07T01:25:18.063Z,15.70
2023-08-07T01:28:20.056Z,15.70
2023-08-07T01:31:01.088Z,15.70
2023-08-07T01:33:44.401Z,15.70
2023-08-07T01:36:19.353Z,15.60
2023-08-07T01:38:55.052Z,15.70
2023-08-07T01:41:29.675Z,15.60
2023-08-07T01:44:03.068Z,15.60
2023-08-07T01:46:36.083Z,15.60
2023-08-07T01:49:03.178Z,15.60
2023-08-07T01:51:30.073Z,15.70
2023-08-07T01:54:03.332Z,15.60
2023-08-07T01:56:30.412Z,15.60
2023-08-07T01:58:57.220Z,15.60
2023-08-07T02:01:30.085Z,15.60
2023-08-07T02:03:57.192Z,15.60
2023-08-07T02:06:30.216Z,15.60
2023-08-07T02:08:57.546Z,15.60
2023-08-07T02:11:31.379Z,15.60
2023-08-07T02:13:58.451Z,15.60
2023-08-07T02:16:25.602Z,15.60
2023-08-07T02:18:59.233Z,15.60
2023-08-07T02:21:26.320Z,15.50
2023-08-07T02:24:00.258Z,15.60
2023-08-07T02:26:27.079Z,15.50
2023-08-07T02:28:53.953Z,15.50
2023-08-07T02:31:27.135Z,15.50
2023-08-07T02:33:54.050Z,15.50
2023-08-07T02:36:34.148Z,15.50
2023-08-07T02:39:07.217Z,15.50
2023-08-07T02:41:47.361Z,15.50
2023-08-07T02:44:14.679Z,15.50
2023-08-07T02:46:48.395Z,15.50
2023-08-07T02:49:15.469Z,15.50
2023-08-07T02:51:42.555Z,15.50
2023-08-07T02:54:16.257Z,15.50
2023-08-07T02:56:43.412Z,15.50
2023-08-07T02:59:10.715Z,15.50
2023-08-07T03:01:44.421Z,15.40
2023-08-07T03:04:18.146Z,15.40
2023-08-07T03:06:51.394Z,15.40
2023-08-07T03:09:18.514Z,15.50
2023-08-07T03:11:52.420Z,15.40
2023-08-07T03:14:19.513Z,15.40
2023-08-07T03:16:47.404Z,15.40
2023-08-07T03:19:21.261Z,15.40
2023-08-07T03:21:48.384Z,15.40
2023-08-07T03:24:15.238Z,15.40
2023-08-07T03:26:49.305Z,15.40
2023-08-07T03:29:16.213Z,15.40
2023-08-07T03:31:43.197Z,15.40
2023-08-07T03:34:16.188Z,15.40
2023-08-07T03:36:43.161Z,15.40
2023-08-07T03:39:23.259Z,15.40
2023-08-07T03:42:03.204Z,15.40
2023-08-07T03:44:30.083Z,15.40
2023-08-07T03:46:58.815Z,15.40
2023-08-07T03:49:32.184Z,15.40
2023-08-07T03:52:07.464Z,15.40
2023-08-07T03:54:34.503Z,15.40
2023-08-07T03:57:01.350Z,15.30
2023-08-07T03:59:34.227Z,15.30
2023-08-07T04:02:01.060Z,15.30
2023-08-07T04:04:34.210Z,15.30
2023-08-07T04:07:07.186Z,15.30
2023-08-07T04:09:40.212Z,15.30
2023-08-07T04:12:14.204Z,15.30
2023-08-07T04:14:41.202Z,15.30
2023-08-07T04:17:15.464Z,15.30
2023-08-07T04:19:42.531Z,15.30
2023-08-07T04:22:16.474Z,15.30
2023-08-07T04:24:43.534Z,15.30
2023-08-07T04:27:10.419Z,15.30
2023-08-07T04:29:44.236Z,15.30
2023-08-07T04:32:11.117Z,15.30
2023-08-07T04:34:44.256Z,15.30
2023-08-07T04:37:11.240Z,15.30
2023-08-07T04:39:51.499Z,15.30
2023-08-07T04:42:25.128Z,15.30
2023-08-07T04:44:58.509Z,15.30
2023-08-07T04:47:25.575Z,15.30
2023-08-07T04:49:53.104Z,15.20
2023-08-07T04:52:27.782Z,15.20
2023-08-07T04:54:55.128Z,15.20
2023-08-07T04:57:23.753Z,15.20
2023-08-07T04:59:58.402Z,15.20
2023-08-07T05:02:25.964Z,15.20
2023-08-07T05:05:00.380Z,15.20
2023-08-07T05:07:28.128Z,15.20
2023-08-07T05:10:01.621Z,15.20
2023-08-07T05:12:28.882Z,15.20
2023-08-07T05:14:55.861Z,15.20
2023-08-07T05:17:30.552Z,15.20
2023-08-07T05:19:57.470Z,15.20
2023-08-07T05:22:31.427Z,15.20
2023-08-07T05:24:58.512Z,15.20
2023-08-07T05:27:32.552Z,15.20
2023-08-07T05:30:00.976Z,15.20
2023-08-07T05:32:34.483Z,15.20
2023-08-07T05:35:01.558Z,15.20
2023-08-07T05:37:28.617Z,15.10
2023-08-07T05:40:02.559Z,15.20
2023-08-07T05:42:42.283Z,15.20
2023-08-07T05:45:17.575Z,15.10
2023-08-07T05:47:44.707Z,15.10
2023-08-07T05:50:18.563Z,15.20
2023-08-07T05:52:45.596Z,15.10
2023-08-07T05:55:12.934Z,15.20
2023-08-07T05:57:57.596Z,15.10
2023-08-07T06:00:24.666Z,15.10
2023-08-07T06:03:18.919Z,15.10
2023-08-07T06:06:02.009Z,15.10
2023-08-07T06:08:35.584Z,15.10
2023-08-07T06:11:04.705Z,15.10
2023-08-07T06:13:38.348Z,15.10
2023-08-07T06:16:05.829Z,15.10
2023-08-07T06:18:32.802Z,15.10
2023-08-07T06:21:06.607Z,15.10
2023-08-07T06:23:34.437Z,15.00
2023-08-07T06:26:11.620Z,15.10
2023-08-07T06:28:45.587Z,15.10
2023-08-07T06:31:19.521Z,15.10
2023-08-07T06:33:46.687Z,15.10
2023-08-07T06:36:13.750Z,15.00
2023-08-07T06:38:47.368Z,15.10
2023-08-07T06:41:27.388Z,15.00
2023-08-07T06:44:00.372Z,15.00
2023-08-07T06:46:35.613Z,15.00
2023-08-07T06:49:09.494Z,15.00
2023-08-07T06:51:42.621Z,15.00
2023-08-07T06:54:16.617Z,15.00
2023-08-07T06:56:45.273Z,15.00
2023-08-07T06:59:18.392Z,15.00
2023-08-07T07:01:45.275Z,15.00
2023-08-07T07:04:12.116Z,15.00
2023-08-07T07:06:45.403Z,15.00
2023-08-07T07:09:12.374Z,15.00
2023-08-07T07:11:39.333Z,15.00
2023-08-07T07:14:12.424Z,15.00
2023-08-07T07:16:39.762Z,15.00
2023-08-07T07:19:16.430Z,15.10
2023-08-07T07:21:43.606Z,15.10
2023-08-07T07:24:17.682Z,15.00
2023-08-07T07:26:44.959Z,15.00
2023-08-07T07:29:12.265Z,15.00
2023-08-07T07:31:45.737Z,15.00
2023-08-07T07:34:12.781Z,15.10
2023-08-07T07:36:39.855Z,15.10
2023-08-07T07:39:13.683Z,15.00
2023-08-07T07:41:46.741Z,15.00
2023-08-07T07:44:20.703Z,15.00
2023-08-07T07:46:47.585Z,15.00
2023-08-07T07:49:14.723Z,15.00
2023-08-07T07:51:48.550Z,15.10
2023-08-07T07:54:15.772Z,15.00
2023-08-07T07:56:50.699Z,15.00
2023-08-07T07:59:17.841Z,15.00
2023-08-07T08:01:45.164Z,15.00
2023-08-07T08:04:18.774Z,15.00
2023-08-07T08:06:45.831Z,15.00
2023-08-07T08:09:19.713Z,15.00
2023-08-07T08:11:46.762Z,15.00
2023-08-07T08:14:20.713Z,15.00
2023-08-07T08:16:47.588Z,15.00
2023-08-07T08:19:21.482Z,15.00
2023-08-07T08:21:48.546Z,15.00
2023-08-07T08:24:21.577Z,15.00
2023-08-07T08:26:54.820Z,15.00
2023-08-07T08:29:28.727Z,15.00
2023-08-07T08:31:56.526Z,15.00
2023-08-07T08:34:29.734Z,15.00
2023-08-07T08:37:03.720Z,15.00
2023-08-07T08:39:50.576Z,15.00
2023-08-07T08:42:27.755Z,15.00
2023-08-07T08:44:57.036Z,15.00
2023-08-07T08:47:26.846Z,15.00
2023-08-07T08:50:12.741Z,14.90
2023-08-07T08:52:44.584Z,15.00
2023-08-07T08:55:12.466Z,15.00
2023-08-07T08:57:46.494Z,15.00
2023-08-07T09:00:26.963Z,15.00
2023-08-07T09:03:00.759Z,15.00
2023-08-07T09:05:29.268Z,15.00
2023-08-07T09:07:57.366Z,15.00
2023-08-07T09:10:31.760Z,15.00
2023-08-07T09:13:12.818Z,15.00
2023-08-07T09:15:40.947Z,15.00
2023-08-07T09:18:15.508Z,15.00
2023-08-07T09:20:43.631Z,15.10
2023-08-07T09:23:10.842Z,15.10
2023-08-07T09:25:44.512Z,15.10
2023-08-07T09:28:11.809Z,15.10
2023-08-07T09:30:49.531Z,15.10
2023-08-07T09:33:16.474Z,15.10
2023-08-07T09:35:49.530Z,15.10
2023-08-07T09:38:22.520Z,15.10
2023-08-07T09:41:12.537Z,15.10
2023-08-07T09:43:46.546Z,15.10
2023-08-07T09:46:13.633Z,15.30
2023-08-07T09:48:48.808Z,15.20
2023-08-07T09:51:15.903Z,15.20
2023-08-07T09:53:42.963Z,15.20
2023-08-07T09:56:16.566Z,15.20
2023-08-07T09:58:48.636Z,15.20
2023-08-07T10:01:23.630Z,15.20
2023-08-07T10:03:50.909Z,15.20
2023-08-07T10:06:26.848Z,15.20
2023-08-07T10:08:55.684Z,15.20
2023-08-07T10:11:29.722Z,15.30
2023-08-07T10:13:58.508Z,15.30
2023-08-07T10:16:27.391Z,15.20
2023-08-07T10:19:00.841Z,15.20
2023-08-07T10:21:28.138Z,15.20
2023-08-07T10:23:57.082Z,15.30
2023-08-07T10:26:31.884Z,15.30
2023-08-07T10:29:08.605Z,15.30
2023-08-07T10:31:44.035Z,15.30
2023-08-07T10:34:11.020Z,15.30
2023-08-07T10:36:40.171Z,15.30
2023-08-07T10:39:18.788Z,15.30
2023-08-07T10:42:02.913Z,15.40
2023-08-07T10:44:33.891Z,15.40
2023-08-07T10:47:02.458Z,15.40
2023-08-07T10:49:53.662Z,15.40
2023-08-07T10:52:23.193Z,15.40
2023-08-07T10:54:57.930Z,15.40
2023-08-07T10:57:39.987Z,15.40
2023-08-07T11:00:15.886Z,15.40
2023-08-07T11:02:43.363Z,15.40
2023-08-07T11:05:16.712Z,15.50
2023-08-07T11:07:45.621Z,15.50
2023-08-07T11:10:16.025Z,15.50
2023-08-07T11:12:49.656Z,15.50
2023-08-07T11:15:16.537Z,15.50
2023-08-07T11:17:43.947Z,15.50
2023-08-07T11:20:18.928Z,15.50
2023-08-07T11:22:46.016Z,15.60
2023-08-07T11:25:15.005Z,15.60
2023-08-07T11:27:50.934Z,15.60
2023-08-07T11:30:24.919Z,15.60
2023-08-07T11:32:52.033Z,15.60
2023-08-07T11:35:32.906Z,15.60
2023-08-07T11:37:59.956Z,15.70
2023-08-07T11:40:33.918Z,15.70
2023-08-07T11:43:13.910Z,15.70
2023-08-07T11:45:47.783Z,15.80
2023-08-07T11:48:14.921Z,15.80
2023-08-07T11:50:48.680Z,15.80
2023-08-07T11:53:15.834Z,15.80
2023-08-07T11:56:05.681Z,15.80
2023-08-07T11:58:43.967Z,15.80
2023-08-07T12:01:13.178Z,15.80
2023-08-07T12:03:58.042Z,15.80
2023-08-07T12:06:26.352Z,15.80
2023-08-07T12:09:04.984Z,15.90
2023-08-07T12:11:32.296Z,15.80
2023-08-07T12:14:09.954Z,15.90
2023-08-07T12:16:37.337Z,15.90
2023-08-07T12:19:05.526Z,15.90
2023-08-07T12:21:40.693Z,16.00
2023-08-07T12:24:14.977Z,16.00
2023-08-07T12:26:49.024Z,16.00
2023-08-07T12:29:16.084Z,16.00
2023-08-07T12:31:49.799Z,16.10
2023-08-07T12:36:55.285Z,16.10
2023-08-07T12:44:50.741Z,16.20
2023-08-07T12:47:17.598Z,16.20
2023-08-07T12:49:47.163Z,16.20
2023-08-07T12:52:20.810Z,16.20
2023-08-07T12:55:00.757Z,16.30
2023-08-07T12:57:27.938Z,16.30
2023-08-07T13:00:02.030Z,16.30
2023-08-07T13:02:29.433Z,16.30
2023-08-07T13:05:03.881Z,16.30
2023-08-07T13:07:30.970Z,16.30
2023-08-07T13:09:58.463Z,16.30
2023-08-07T13:12:32.004Z,16.30
2023-08-07T13:15:06.039Z,16.40
2023-08-07T13:17:33.319Z,16.40
2023-08-07T13:20:01.722Z,16.50
2023-08-07T13:22:36.037Z,16.50
2023-08-07T13:25:04.792Z,16.50
2023-08-07T13:27:42.065Z,16.60
2023-08-07T13:30:10.176Z,16.60
2023-08-07T13:32:37.928Z,16.60
2023-08-07T13:35:12.829Z,16.60
2023-08-07T13:37:39.707Z,16.60
2023-08-07T13:40:21.801Z,16.70
2023-08-07T13:42:55.392Z,16.70
2023-08-07T13:45:29.046Z,16.80
2023-08-07T13:47:55.959Z,16.80
2023-08-07T13:50:23.231Z,16.80
2023-08-07T13:53:08.269Z,16.90
2023-08-07T13:55:48.075Z,16.90
2023-08-07T13:58:17.713Z,17.00
2023-08-07T14:00:52.120Z,17.10
2023-08-07T14:03:19.374Z,17.10
2023-08-07T14:05:46.643Z,17.10
2023-08-07T14:08:20.118Z,17.10
2023-08-07T14:10:53.802Z,17.10
2023-08-07T14:13:35.222Z,17.10
2023-08-07T14:16:14.856Z,17.20
2023-08-07T14:18:48.814Z,17.20
2023-08-07T14:21:21.841Z,17.20
2023-08-07T14:23:50.404Z,17.20
2023-08-07T14:26:18.848Z,17.20
2023-08-07T14:28:52.836Z,17.20
2023-08-07T14:31:19.717Z,17.20
2023-08-07T14:33:54.481Z,17.30
2023-08-07T14:36:22.040Z,17.30
2023-08-07T14:38:56.127Z,17.30
2023-08-07T14:41:30.220Z,17.30
2023-08-07T14:44:03.994Z,17.30
2023-08-07T14:46:31.163Z,17.40
2023-08-07T14:49:05.106Z,17.50
2023-08-07T14:51:32.256Z,17.50
2023-08-07T14:53:59.461Z,17.50
2023-08-07T14:56:33.137Z,17.50
2023-08-07T14:59:07.030Z,17.60
2023-08-07T15:01:34.124Z,17.60
2023-08-07T15:04:08.170Z,17.60
2023-08-07T15:06:42.137Z,17.60
2023-08-07T15:09:10.484Z,17.60
2023-08-07T15:11:39.026Z,17.60
2023-08-07T15:14:14.159Z,17.70
2023-08-07T15:16:49.938Z,17.70
2023-08-07T15:19:22.913Z,17.80
2023-08-07T15:21:52.036Z,17.90
2023-08-07T15:24:19.053Z,17.90
2023-08-07T15:26:53.162Z,17.80
2023-08-07T15:29:20.117Z,17.80
2023-08-07T15:31:47.279Z,17.80
2023-08-07T15:34:21.154Z,17.70
2023-08-07T15:36:55.641Z,17.80
2023-08-07T15:39:22.961Z,17.70
2023-08-07T15:42:10.165Z,17.70
2023-08-07T15:44:39.470Z,17.70
2023-08-07T15:47:06.548Z,17.70
2023-08-07T15:49:40.157Z,17.70
2023-08-07T15:52:14.188Z,17.70
2023-08-07T15:54:41.348Z,17.70
2023-08-07T15:57:15.204Z,17.70
2023-08-07T15:59:42.121Z,17.70
2023-08-07T16:02:16.217Z,17.70
2023-08-07T16:04:43.321Z,17.70
2023-08-07T16:07:17.188Z,17.70
2023-08-07T16:09:44.305Z,17.70
2023-08-07T16:12:18.312Z,17.70
2023-08-07T16:14:45.511Z,17.70
2023-08-07T16:17:19.248Z,17.70
2023-08-07T16:19:46.164Z,17.70
2023-08-07T16:22:20.197Z,17.70
2023-08-07T16:24:48.878Z,17.70
2023-08-07T16:27:15.965Z,17.70
2023-08-07T16:29:49.267Z,17.70
2023-08-07T16:32:16.384Z,17.70
2023-08-07T16:34:49.976Z,17.60
2023-08-07T16:37:25.239Z,17.60
2023-08-07T16:39:59.245Z,17.60
2023-08-07T16:42:39.239Z,17.70
2023-08-07T16:45:20.241Z,17.70
2023-08-07T16:47:47.350Z,17.70
2023-08-07T16:50:21.262Z,17.70
2023-08-07T16:52:48.236Z,17.70
2023-08-07T16:55:15.299Z,17.70
2023-08-07T16:57:49.025Z,17.70
2023-08-07T17:00:16.798Z,17.70
2023-08-07T17:02:50.360Z,17.70
2023-08-07T17:05:17.306Z,17.70
2023-08-07T17:07:44.189Z,17.70
2023-08-07T17:10:23.253Z,17.70
2023-08-07T17:12:57.010Z,17.70
2023-08-07T17:15:23.922Z,17.80
2023-08-07T17:17:51.949Z,17.80
2023-08-07T17:20:25.262Z,17.70
2023-08-07T17:22:59.270Z,17.70
2023-08-07T17:25:26.117Z,17.70
2023-08-07T17:27:59.267Z,17.70
2023-08-07T17:30:33.036Z,17.70
2023-08-07T17:33:07.325Z,17.70
2023-08-07T17:35:35.696Z,17.70
2023-08-07T17:38:09.267Z,17.70
2023-08-07T17:40:56.306Z,17.70
2023-08-07T17:43:30.319Z,17.70
2023-08-07T17:46:04.180Z,17.70
2023-08-07T17:48:32.835Z,17.70
2023-08-07T17:51:06.300Z,17.70
2023-08-07T17:53:33.374Z,17.70
2023-08-07T17:56:00.514Z,17.70
2023-08-07T17:58:34.327Z,17.70
2023-08-07T18:01:01.388Z,17.70
2023-08-07T18:03:35.336Z,17.60
2023-08-07T18:06:02.418Z,17.60
2023-08-07T18:08:30.726Z,17.60
2023-08-07T18:11:04.209Z,17.60
2023-08-07T18:13:31.186Z,17.60
2023-08-07T18:16:05.348Z,17.60
2023-08-07T18:18:39.325Z,17.60
2023-08-07T18:21:13.368Z,17.60
2023-08-07T18:23:40.463Z,17.60
2023-08-07T18:26:14.205Z,17.60
2023-08-07T18:28:41.363Z,17.60
2023-08-07T18:31:08.630Z,17.60
2023-08-07T18:33:42.364Z,17.60
2023-08-07T18:36:09.185Z,17.60
2023-08-07T18:38:42.362Z,17.50
2023-08-07T18:41:16.014Z,17.50
2023-08-07T18:43:49.345Z,17.50
2023-08-07T18:46:24.414Z,17.50
2023-08-07T18:48:51.639Z,17.50
2023-08-07T18:51:18.673Z,17.50
2023-08-07T18:53:52.374Z,17.50
2023-08-07T18:56:19.557Z,17.40
2023-08-07T18:58:53.383Z,17.40
2023-08-07T19:01:20.520Z,17.40
2023-08-07T19:03:47.594Z,17.40
2023-08-07T19:06:21.129Z,17.40
2023-08-07T19:08:54.153Z,17.40
2023-08-07T19:11:21.909Z,17.40
2023-08-07T19:13:55.265Z,17.40
2023-08-07T19:16:22.943Z,17.40
2023-08-07T19:18:56.154Z,17.30
2023-08-07T19:21:23.262Z,17.30
2023-08-07T19:23:50.381Z,17.30
2023-08-07T19:26:24.423Z,17.30
2023-08-07T19:28:52.878Z,17.30
2023-08-07T19:31:20.029Z,17.30
2023-08-07T19:33:53.449Z,17.30
2023-08-07T19:36:20.857Z,17.20
2023-08-07T19:38:47.999Z,17.20
2023-08-07T19:41:21.434Z,17.30
2023-08-07T19:43:55.516Z,17.20
2023-08-07T19:46:31.190Z,17.20
2023-08-07T19:49:04.435Z,17.20
2023-08-07T19:51:33.874Z,17.20
2023-08-07T19:54:07.398Z,17.10
2023-08-07T19:56:36.800Z,17.10
2023-08-07T19:59:10.469Z,17.10
2023-08-07T20:01:37.746Z,17.10
2023-08-07T20:04:05.126Z,17.10
2023-08-07T20:06:38.488Z,17.10
2023-08-07T20:09:05.474Z,17.10
2023-08-07T20:11:44.218Z,17.10
2023-08-07T20:14:11.064Z,17.00
2023-08-07T20:16:38.772Z,17.00
2023-08-07T20:19:12.204Z,17.00
2023-08-07T20:21:39.614Z,17.00
2023-08-07T20:24:13.374Z,17.00
2023-08-07T20:26:40.691Z,17.00
2023-08-07T20:29:07.726Z,17.00
2023-08-07T20:31:41.493Z,17.00
2023-08-07T20:34:08.443Z,16.90
2023-08-07T20:36:35.321Z,16.90
2023-08-07T20:39:08.233Z,16.90
2023-08-07T20:41:42.184Z,16.90
2023-08-07T20:44:15.233Z,16.90
2023-08-07T20:46:42.144Z,16.90
2023-08-07T20:49:15.236Z,16.90
2023-08-07T20:51:42.041Z,16.90
2023-08-07T20:54:09.150Z,16.80
2023-08-07T20:56:42.501Z,16.80
2023-08-07T20:59:16.532Z,16.80
2023-08-07T21:01:52.514Z,16.80
2023-08-07T21:04:20.229Z,16.80
2023-08-07T21:06:48.538Z,16.70
2023-08-07T21:09:22.559Z,16.70
2023-08-07T21:11:49.990Z,16.80
2023-08-07T21:14:23.538Z,16.70
2023-08-07T21:16:50.563Z,16.70
2023-08-07T21:19:24.428Z,16.70
2023-08-07T21:21:51.612Z,16.70
2023-08-07T21:24:18.422Z,16.70
2023-08-07T21:26:51.263Z,16.70
2023-08-07T21:29:18.339Z,16.60
2023-08-07T21:31:51.520Z,16.60
2023-08-07T21:34:25.527Z,16.60
2023-08-07T21:36:52.667Z,16.60
2023-08-07T21:39:26.550Z,16.60
2023-08-07T21:42:00.903Z,16.60
2023-08-07T21:44:41.552Z,16.60
2023-08-07T21:47:08.612Z,16.50
2023-08-07T21:49:42.566Z,16.50
2023-08-07T21:52:10.560Z,16.50
2023-08-07T21:54:38.081Z,16.50
2023-08-07T21:57:12.579Z,16.50
2023-08-07T21:59:39.662Z,16.50
2023-08-07T22:02:07.029Z,16.50
2023-08-07T22:04:40.662Z,16.40
2023-08-07T22:07:14.558Z,16.40
2023-08-07T22:09:41.651Z,16.40
2023-08-07T22:12:09.078Z,16.40
2023-08-07T22:14:49.602Z,16.40
2023-08-07T22:17:16.478Z,16.40
2023-08-07T22:20:02.884Z,16.30
2023-08-07T22:22:32.123Z,16.30
2023-08-07T22:25:05.570Z,16.40
2023-08-07T22:27:32.611Z,16.30
2023-08-07T22:30:08.480Z,16.30
2023-08-07T22:32:36.951Z,16.30
2023-08-07T22:35:11.389Z,16.30
2023-08-07T22:37:38.215Z,16.30
2023-08-07T22:40:06.134Z,16.30
2023-08-07T22:42:39.612Z,16.30
2023-08-07T22:45:13.244Z,16.20
2023-08-07T22:47:46.520Z,16.20
2023-08-07T22:50:20.369Z,16.20
2023-08-07T22:52:47.250Z,16.20
2023-08-07T22:55:20.642Z,16.20
2023-08-07T22:57:47.691Z,16.20
2023-08-07T23:00:21.657Z,16.20
2023-08-07T23:02:48.583Z,16.20
2023-08-07T23:05:17.057Z,16.20
2023-08-07T23:07:53.645Z,16.20
2023-08-07T23:10:20.570Z,16.20
2023-08-07T23:12:54.500Z,16.10
2023-08-07T23:15:21.431Z,16.20
2023-08-07T23:17:57.668Z,16.20
2023-08-07T23:20:24.773Z,16.10
2023-08-07T23:22:58.646Z,16.20
2023-08-07T23:25:32.627Z,16.10
2023-08-07T23:27:59.691Z,16.10
2023-08-07T23:30:39.643Z,16.10
2023-08-07T23:33:06.774Z,16.10
2023-08-07T23:35:40.667Z,16.10
2023-08-07T23:38:08.265Z,16.10
2023-08-07T23:40:45.681Z,16.10
2023-08-07T23:43:19.648Z,16.10
2023-08-07T23:45:59.442Z,16.00
2023-08-07T23:48:26.559Z,16.00
2023-08-07T23:50:54.194Z,16.10
2023-08-07T23:53:28.672Z,16.00
2023-08-07T23:55:55.891Z,16.10
2023-08-07T23:58:29.701Z,16.00
